Time;durP1;ratioP1;P1;durP2;ratioP2;P2;SDS_P1;SDS_P2;PMS_P1;PMS_P2;Temp;Humidity;BMP_temperature;BMP_pressure;BME280_temperature;BME280_humidity;BME280_pressure;Samples;Min_cycle;Max_cycle;Signal;HPM_P1;HPM_P2
2021/12/09 00:01:45;;;;;;;0.00;0.00;;;3.60;99.90;;;;;;5100741;27;20035;-80
2021/12/09 00:04:14;;;;;;;0.00;0.00;;;3.50;99.90;;;;;;5100758;27;20096;-79
2021/12/09 00:06:42;;;;;;;0.03;0.00;;;3.50;99.90;;;;;;5117809;27;20047;-79
2021/12/09 00:09:16;;;;;;;0.20;0.00;;;3.50;99.90;;;;;;5100665;27;20222;-79
2021/12/09 00:11:46;;;;;;;0.00;0.00;;;3.50;99.90;;;;;;5100963;27;20046;-79
2021/12/09 00:14:32;;;;;;;0.28;0.28;;;3.40;99.90;;;;;;5117285;27;20474;-79
2021/12/09 00:17:04;;;;;;;0.05;0.00;;;3.40;99.90;;;;;;5116976;27;20047;-79
2021/12/09 00:19:30;;;;;;;0.35;0.32;;;3.40;99.90;;;;;;5099727;27;20051;-80
2021/12/09 00:21:56;;;;;;;0.22;0.22;;;3.40;99.90;;;;;;5099711;27;20062;-79
2021/12/09 00:24:23;;;;;;;0.10;0.10;;;3.30;99.90;;;;;;5133878;27;20050;-79
2021/12/09 00:26:49;;;;;;;1.30;0.20;;;3.30;99.90;;;;;;5117106;27;20531;-79
2021/12/09 00:29:16;;;;;;;0.00;0.00;;;3.30;99.90;;;;;;5151085;27;20047;-80
2021/12/09 00:31:42;;;;;;;0.00;0.00;;;3.20;99.90;;;;;;5099625;27;20047;-79
2021/12/09 00:34:08;;;;;;;0.00;0.00;;;3.20;99.90;;;;;;5113113;28;20073;-79
2021/12/09 00:36:39;;;;;;;0.00;0.00;;;3.20;99.90;;;;;;5147732;27;20048;-79
2021/12/09 00:39:07;;;;;;;0.52;0.22;;;3.20;99.90;;;;;;5113089;28;20494;-80
2021/12/09 00:41:33;;;;;;;0.00;0.00;;;3.10;99.90;;;;;;5095735;28;20055;-80
2021/12/09 00:44:02;;;;;;;0.00;0.00;;;3.10;99.90;;;;;;5096916;28;20048;-79
2021/12/09 00:46:28;;;;;;;0.00;0.00;;;3.10;99.90;;;;;;5113679;28;20062;-79
2021/12/09 00:48:54;;;;;;;0.13;0.08;;;3.10;99.90;;;;;;5096522;28;20462;-79
2021/12/09 00:51:21;;;;;;;0.10;0.10;;;3.10;99.90;;;;;;5096544;28;20106;-79
2021/12/09 00:53:46;;;;;;;0.00;0.00;;;3.10;99.90;;;;;;5096374;28;20087;-80
2021/12/09 00:56:13;;;;;;;0.20;0.00;;;3.10;99.90;;;;;;5113713;28;20075;-79
2021/12/09 00:58:41;;;;;;;0.00;0.00;;;3.10;99.90;;;;;;5113354;28;20048;-79
2021/12/09 01:01:08;;;;;;;0.00;0.00;;;3.10;99.90;;;;;;5096741;28;20054;-79
2021/12/09 01:03:36;;;;;;;0.00;0.00;;;3.00;99.90;;;;;;5129694;28;20395;-79
2021/12/09 01:06:03;;;;;;;0.28;0.28;;;3.00;99.90;;;;;;5147547;27;20051;-79
2021/12/09 01:08:28;;;;;;;0.00;0.00;;;3.00;99.90;;;;;;5113062;28;20039;-79
2021/12/09 01:10:54;;;;;;;0.00;0.00;;;3.10;99.90;;;;;;5114779;28;20071;-79
2021/12/09 01:13:20;;;;;;;0.00;0.00;;;3.00;99.90;;;;;;5116889;28;20090;-79
2021/12/09 01:15:46;;;;;;;0.00;0.00;;;2.90;99.90;;;;;;5099950;28;20054;-79
2021/12/09 01:18:12;;;;;;;0.00;0.00;;;2.90;99.90;;;;;;5151510;27;20039;-79
2021/12/09 01:20:38;;;;;;;0.25;0.25;;;3.00;99.90;;;;;;5116752;28;20134;-79
2021/12/09 01:23:04;;;;;;;0.00;0.00;;;3.00;99.90;;;;;;5099795;28;20044;-79
2021/12/09 01:25:37;;;;;;;0.30;0.30;;;3.00;99.90;;;;;;5116930;28;20038;-79
2021/12/09 01:28:05;;;;;;;0.15;0.15;;;2.90;99.90;;;;;;5099623;28;20491;-79
2021/12/09 01:30:31;;;;;;;0.20;0.10;;;2.90;99.90;;;;;;5116544;28;20079;-79
2021/12/09 01:32:58;;;;;;;0.00;0.00;;;2.90;99.90;;;;;;5117008;27;20043;-79
2021/12/09 01:35:26;;;;;;;0.30;0.30;;;2.90;99.90;;;;;;5136866;27;20476;-79
2021/12/09 01:37:55;;;;;;;2.10;0.22;;;2.90;99.90;;;;;;5119966;27;20039;-79
2021/12/09 01:40:22;;;;;;;0.00;0.00;;;2.90;99.90;;;;;;5119588;27;20486;-79
2021/12/09 01:42:50;;;;;;;1.77;0.30;;;2.90;99.90;;;;;;5102596;27;20050;-79
2021/12/09 01:45:16;;;;;;;0.30;0.20;;;2.90;99.90;;;;;;5102959;27;20044;-79
2021/12/09 01:47:42;;;;;;;2.38;1.23;;;2.80;99.90;;;;;;5137335;27;20134;-79
2021/12/09 01:50:09;;;;;;;0.05;0.05;;;2.80;99.90;;;;;;5120182;27;20542;-79
2021/12/09 01:52:35;;;;;;;0.00;0.00;;;2.80;99.90;;;;;;5119721;27;20039;-79
2021/12/09 01:55:02;;;;;;;0.00;0.00;;;2.80;99.90;;;;;;5119428;27;20068;-79
2021/12/09 01:57:28;;;;;;;0.00;0.00;;;2.80;99.90;;;;;;5102684;27;20043;-79
2021/12/09 01:59:54;;;;;;;0.00;0.00;;;2.80;99.90;;;;;;5136136;27;20398;-79
2021/12/09 02:02:19;;;;;;;0.30;0.10;;;2.80;99.90;;;;;;5119060;27;20043;-79
2021/12/09 02:04:45;;;;;;;0.00;0.00;;;2.80;99.90;;;;;;5102212;27;20059;-79
2021/12/09 02:07:11;;;;;;;0.20;0.00;;;2.80;99.90;;;;;;5153982;27;20074;-80
2021/12/09 02:09:38;;;;;;;1.08;0.30;;;2.80;99.90;;;;;;5153906;27;20050;-79
2021/12/09 02:12:04;;;;;;;0.00;0.00;;;2.80;99.90;;;;;;5102374;27;20039;-79
2021/12/09 02:14:30;;;;;;;0.10;0.10;;;2.80;99.90;;;;;;5101403;27;20059;-79
2021/12/09 02:16:56;;;;;;;0.00;0.00;;;2.80;99.90;;;;;;5119154;27;20078;-79
2021/12/09 02:19:22;;;;;;;0.73;0.08;;;2.80;99.90;;;;;;5119179;27;20039;-79
2021/12/09 02:21:48;;;;;;;0.10;0.10;;;2.90;99.90;;;;;;5119425;27;20043;-79
2021/12/09 02:24:16;;;;;;;0.20;0.20;;;2.80;99.90;;;;;;5136367;27;20051;-79
2021/12/09 02:26:45;;;;;;;0.00;0.00;;;2.70;99.90;;;;;;5119234;27;20047;-79
2021/12/09 02:29:12;;;;;;;0.00;0.00;;;2.80;99.90;;;;;;5119705;27;20043;-79
2021/12/09 02:31:39;;;;;;;4.57;0.57;;;2.80;99.90;;;;;;5102055;27;20067;-79
2021/12/09 02:34:06;;;;;;;1.75;0.10;;;2.70;99.90;;;;;;5101954;27;20054;-79
2021/12/09 02:36:37;;;;;;;0.00;0.00;;;2.70;99.90;;;;;;5119699;27;20058;-79
2021/12/09 02:39:09;;;;;;;0.00;0.00;;;2.70;99.90;;;;;;5102319;27;20107;-79
2021/12/09 02:41:36;;;;;;;0.10;0.10;;;3.00;99.90;;;;;;5101920;27;20047;-79
2021/12/09 02:44:05;;;;;;;0.28;0.15;;;2.70;99.90;;;;;;5118564;27;20047;-79
2021/12/09 02:46:37;;;;;;;0.00;0.00;;;2.60;99.90;;;;;;5119738;27;20043;-79
2021/12/09 02:49:12;;;;;;;0.15;0.13;;;2.60;99.90;;;;;;5119408;27;20054;-79
2021/12/09 02:51:38;;;;;;;0.22;0.22;;;2.60;99.90;;;;;;5102144;27;20051;-79
2021/12/09 02:54:06;;;;;;;0.00;0.00;;;2.60;99.90;;;;;;5118997;27;20440;-79
2021/12/09 02:56:33;;;;;;;3.20;0.70;;;2.60;99.90;;;;;;5101807;27;20043;-79
2021/12/09 02:58:59;;;;;;;0.63;0.10;;;2.50;99.90;;;;;;5101060;27;20060;-79
2021/12/09 03:01:29;;;;;;;0.85;0.00;;;2.50;99.90;;;;;;5119193;27;20134;-79
2021/12/09 03:03:59;;;;;;;0.00;0.00;;;2.50;99.90;;;;;;5119122;27;20126;-79
2021/12/09 03:06:38;;;;;;;0.00;0.00;;;2.50;99.90;;;;;;5101835;27;20039;-79
2021/12/09 03:09:08;;;;;;;0.45;0.10;;;2.50;99.90;;;;;;5118692;27;20046;-79
2021/12/09 03:11:34;;;;;;;0.38;0.10;;;2.40;99.90;;;;;;5119521;27;20051;-79
2021/12/09 03:14:01;;;;;;;0.30;0.30;;;2.40;99.90;;;;;;5118649;27;20117;-79
2021/12/09 03:16:29;;;;;;;0.70;0.10;;;2.50;99.90;;;;;;5101687;27;20098;-79
2021/12/09 03:18:59;;;;;;;0.00;0.00;;;2.50;99.90;;;;;;5101399;27;20050;-79
2021/12/09 03:21:45;;;;;;;1.55;0.30;;;2.40;99.90;;;;;;5100857;27;20103;-79
2021/12/09 03:24:17;;;;;;;0.00;0.00;;;2.40;99.90;;;;;;5101638;27;20051;-79
2021/12/09 03:26:47;;;;;;;0.00;0.00;;;2.40;99.90;;;;;;5118187;27;20432;-79
2021/12/09 03:29:15;;;;;;;10.50;0.20;;;2.40;99.90;;;;;;5101291;27;20050;-79
2021/12/09 03:31:43;;;;;;;0.10;0.10;;;2.40;99.90;;;;;;5118162;27;20053;-79
2021/12/09 03:34:10;;;;;;;1.65;0.52;;;2.40;99.90;;;;;;5099276;27;20506;-79
2021/12/09 03:36:36;;;;;;;0.00;0.00;;;2.40;99.90;;;;;;5101192;27;20061;-79
2021/12/09 03:39:08;;;;;;;0.00;0.00;;;2.30;99.90;;;;;;5118235;27;20050;-79
2021/12/09 03:41:35;;;;;;;0.35;0.20;;;2.30;99.90;;;;;;5101090;27;20043;-79
2021/12/09 03:44:00;;;;;;;0.00;0.00;;;2.30;99.90;;;;;;5100525;27;20088;-79
2021/12/09 03:46:26;;;;;;;1.40;0.08;;;2.30;99.90;;;;;;5117823;27;20043;-79
2021/12/09 03:48:52;;;;;;;0.00;0.00;;;2.30;99.90;;;;;;5118056;27;20047;-79
2021/12/09 03:51:18;;;;;;;0.03;0.03;;;2.30;99.90;;;;;;5117664;27;20042;-79
2021/12/09 03:53:44;;;;;;;0.00;0.00;;;2.30;99.90;;;;;;5134326;27;20054;-79
2021/12/09 03:56:09;;;;;;;0.35;0.28;;;2.30;99.90;;;;;;5152282;27;20178;-79
2021/12/09 03:58:35;;;;;;;0.00;0.00;;;2.30;99.90;;;;;;5152091;27;20061;-79
2021/12/09 04:01:01;;;;;;;1.08;0.43;;;2.20;99.90;;;;;;5134880;27;20090;-79
2021/12/09 04:03:27;;;;;;;16.98;1.08;;;2.20;99.90;;;;;;5134232;27;20081;-79
2021/12/09 04:05:53;;;;;;;0.00;0.00;;;2.20;99.90;;;;;;5117779;27;20043;-79
2021/12/09 04:08:21;;;;;;;0.00;0.00;;;2.20;99.90;;;;;;5134888;27;20047;-79
2021/12/09 04:10:47;;;;;;;0.25;0.25;;;2.20;99.90;;;;;;5134697;27;20051;-79
2021/12/09 04:13:13;;;;;;;0.00;0.00;;;2.20;99.90;;;;;;5100441;27;20149;-79
2021/12/09 04:15:38;;;;;;;0.03;0.03;;;2.20;99.90;;;;;;5134801;27;20082;-79
2021/12/09 04:18:04;;;;;;;0.60;0.47;;;2.10;99.90;;;;;;5152005;27;20042;-79
2021/12/09 04:20:30;;;;;;;0.28;0.28;;;2.20;99.90;;;;;;5117778;27;20427;-79
2021/12/09 04:22:56;;;;;;;0.00;0.00;;;2.10;99.90;;;;;;5117110;27;20085;-79
2021/12/09 04:25:24;;;;;;;0.00;0.00;;;2.10;99.90;;;;;;5117367;27;20081;-79
2021/12/09 04:27:51;;;;;;;0.00;0.00;;;2.10;99.90;;;;;;5117344;27;20443;-79
2021/12/09 04:30:17;;;;;;;0.00;0.00;;;2.10;99.90;;;;;;5100433;27;20047;-79
2021/12/09 04:32:44;;;;;;;0.00;0.00;;;2.10;99.90;;;;;;5117345;27;20505;-79
2021/12/09 04:35:11;;;;;;;0.00;0.00;;;2.10;99.90;;;;;;5096075;28;20108;-79
2021/12/09 04:37:38;;;;;;;3.95;1.35;;;2.10;99.90;;;;;;5095876;28;20044;-79
2021/12/09 04:40:07;;;;;;;0.00;0.00;;;2.10;99.90;;;;;;5113391;28;20463;-79
2021/12/09 04:42:32;;;;;;;0.25;0.00;;;2.10;99.90;;;;;;5096874;28;20463;-79
2021/12/09 04:44:58;;;;;;;0.00;0.00;;;2.10;99.90;;;;;;5113426;28;20098;-79
2021/12/09 04:47:24;;;;;;;0.10;0.00;;;2.10;99.90;;;;;;5113041;28;20083;-79
2021/12/09 04:49:50;;;;;;;0.28;0.28;;;2.10;99.90;;;;;;5130714;27;20043;-79
2021/12/09 04:52:16;;;;;;;0.60;0.60;;;2.10;99.90;;;;;;5130255;28;20047;-79
2021/12/09 04:54:41;;;;;;;0.47;0.20;;;2.10;99.90;;;;;;5147397;27;20055;-79
2021/12/09 04:57:12;;;;;;;0.15;0.15;;;2.00;99.90;;;;;;5096547;28;20062;-79
2021/12/09 04:59:39;;;;;;;0.00;0.00;;;2.00;99.90;;;;;;5096765;28;20376;-79
2021/12/09 05:02:10;;;;;;;0.30;0.30;;;2.00;99.90;;;;;;5113410;28;20052;-79
2021/12/09 05:04:36;;;;;;;0.00;0.00;;;2.00;99.90;;;;;;5096583;28;20069;-79
2021/12/09 05:07:02;;;;;;;0.00;0.00;;;2.00;99.90;;;;;;5113788;28;20039;-79
2021/12/09 05:09:29;;;;;;;0.47;0.47;;;2.00;99.90;;;;;;5096241;28;20050;-79
2021/12/09 05:11:55;;;;;;;0.00;0.00;;;2.00;99.90;;;;;;5113430;28;20055;-79
2021/12/09 05:14:22;;;;;;;0.00;0.00;;;2.00;99.90;;;;;;5113696;28;20065;-79
2021/12/09 05:16:52;;;;;;;0.20;0.20;;;1.90;99.90;;;;;;5113767;28;20046;-79
2021/12/09 05:19:19;;;;;;;0.00;0.00;;;1.90;99.90;;;;;;5113820;28;20448;-79
2021/12/09 05:21:45;;;;;;;0.10;0.00;;;2.00;99.90;;;;;;5095509;28;20142;-79
2021/12/09 05:24:13;;;;;;;1.42;0.43;;;1.90;99.90;;;;;;5095734;28;20069;-79
2021/12/09 05:26:51;;;;;;;0.10;0.10;;;1.80;99.90;;;;;;5112318;28;20067;-79
2021/12/09 05:29:18;;;;;;;0.10;0.10;;;1.80;99.90;;;;;;5096681;28;20051;-79
2021/12/09 05:34:30;;;;;;;0.08;0.08;;;1.80;99.90;;;;;;5112062;28;20048;-79
2021/12/09 05:36:55;;;;;;;0.35;0.35;;;1.80;99.90;;;;;;5112185;28;20497;-79
2021/12/09 05:39:21;;;;;;;0.00;0.00;;;1.80;99.90;;;;;;5095782;28;20040;-79
2021/12/09 05:41:47;;;;;;;0.45;0.22;;;1.80;99.90;;;;;;5147133;27;20047;-79
2021/12/09 05:44:14;;;;;;;0.00;0.00;;;1.80;99.90;;;;;;5112753;28;20081;-79
2021/12/09 05:46:43;;;;;;;0.20;0.20;;;1.80;99.90;;;;;;5095740;28;20364;-79
2021/12/09 05:49:10;;;;;;;0.00;0.00;;;1.80;99.90;;;;;;5112442;28;20513;-79
2021/12/09 05:51:36;;;;;;;0.10;0.10;;;2.00;99.90;;;;;;5094800;28;20406;-79
2021/12/09 05:54:02;;;;;;;0.15;0.10;;;1.80;99.90;;;;;;5112634;28;20435;-79
2021/12/09 05:56:28;;;;;;;0.00;0.00;;;1.80;99.90;;;;;;5130377;27;20048;-79
2021/12/09 05:58:54;;;;;;;0.30;0.30;;;1.80;99.90;;;;;;5116135;28;20047;-79
2021/12/09 06:01:21;;;;;;;0.00;0.00;;;1.80;99.90;;;;;;5116040;28;20055;-79
2021/12/09 06:03:46;;;;;;;0.00;0.00;;;1.80;99.90;;;;;;5115570;28;20039;-79
2021/12/09 06:06:12;;;;;;;0.17;0.17;;;1.80;99.90;;;;;;5115938;28;20495;-79
2021/12/09 06:08:40;;;;;;;0.00;0.00;;;1.80;99.90;;;;;;5099328;28;20467;-79
2021/12/09 06:11:07;;;;;;;0.00;0.00;;;1.70;99.90;;;;;;5115964;28;20066;-79
2021/12/09 06:13:36;;;;;;;0.00;0.00;;;1.70;99.90;;;;;;5098798;28;20047;-80
2021/12/09 06:16:03;;;;;;;0.00;0.00;;;1.80;99.90;;;;;;5115770;28;20130;-79
2021/12/09 06:18:29;;;;;;;0.00;0.00;;;1.70;99.90;;;;;;5115517;28;20493;-80
2021/12/09 06:20:57;;;;;;;0.10;0.10;;;1.70;99.90;;;;;;5150558;27;20048;-79
2021/12/09 06:23:23;;;;;;;0.00;0.00;;;1.70;99.90;;;;;;5115425;28;20475;-79
2021/12/09 06:25:50;;;;;;;0.13;0.10;;;1.70;99.90;;;;;;5132504;27;20055;-79
2021/12/09 06:28:16;;;;;;;0.00;0.00;;;1.70;99.90;;;;;;5133095;27;20043;-79
2021/12/09 06:30:43;;;;;;;0.00;0.00;;;1.70;99.90;;;;;;5098506;28;20048;-79
2021/12/09 06:33:09;;;;;;;0.00;0.00;;;1.70;99.90;;;;;;5117987;27;20048;-79
2021/12/09 06:35:36;;;;;;;2.40;0.20;;;1.70;99.90;;;;;;5136597;27;20039;-80
2021/12/09 06:38:03;;;;;;;0.22;0.05;;;1.70;99.90;;;;;;5136632;27;20386;-79
2021/12/09 06:40:29;;;;;;;0.00;0.00;;;1.70;99.90;;;;;;5101555;27;20151;-79
2021/12/09 06:42:56;;;;;;;0.00;0.00;;;1.70;99.90;;;;;;5134976;27;20054;-79
2021/12/09 06:45:23;;;;;;;0.00;0.00;;;1.70;99.90;;;;;;5101396;27;20055;-79
2021/12/09 06:47:49;;;;;;;0.00;0.00;;;1.70;99.90;;;;;;5101704;27;20444;-79
2021/12/09 06:50:17;;;;;;;0.00;0.00;;;1.70;99.90;;;;;;5101773;27;20096;-79
2021/12/09 06:52:43;;;;;;;0.05;0.05;;;1.70;99.90;;;;;;5101453;27;20077;-79
2021/12/09 06:55:12;;;;;;;0.10;0.10;;;1.70;99.90;;;;;;5118895;27;20043;-79
2021/12/09 06:57:38;;;;;;;0.17;0.08;;;1.70;99.90;;;;;;5119298;27;20043;-79
2021/12/09 07:00:09;;;;;;;5.35;1.30;;;1.70;99.90;;;;;;5118932;27;20122;-79
2021/12/09 07:02:35;;;;;;;0.00;0.00;;;1.70;99.90;;;;;;5118794;27;20046;-79
2021/12/09 07:05:01;;;;;;;0.10;0.10;;;1.90;99.90;;;;;;5101313;27;20047;-79
2021/12/09 07:07:27;;;;;;;0.00;0.00;;;1.70;99.90;;;;;;5118123;28;20490;-79
2021/12/09 07:09:53;;;;;;;0.00;0.00;;;1.70;99.90;;;;;;5101030;27;20043;-79
2021/12/09 07:12:19;;;;;;;0.30;0.30;;;1.80;99.90;;;;;;5101740;27;20090;-79
2021/12/09 07:14:45;;;;;;;0.00;0.00;;;1.80;99.90;;;;;;5135824;27;20049;-79
2021/12/09 07:17:11;;;;;;;0.00;0.00;;;1.80;99.90;;;;;;5118689;27;20043;-79
2021/12/09 07:19:37;;;;;;;0.10;0.10;;;1.80;99.90;;;;;;5101369;27;20050;-79
2021/12/09 07:22:04;;;;;;;0.00;0.00;;;1.80;99.90;;;;;;5101534;27;20039;-79
2021/12/09 07:24:30;;;;;;;0.08;0.08;;;1.90;99.90;;;;;;5100834;27;20143;-80
2021/12/09 07:26:57;;;;;;;0.00;0.00;;;1.80;99.90;;;;;;5117745;27;20478;-79
2021/12/09 07:29:24;;;;;;;0.45;0.45;;;1.80;99.90;;;;;;5117969;27;20050;-79
2021/12/09 07:31:50;;;;;;;0.30;0.30;;;1.90;99.90;;;;;;5117928;27;20444;-79
2021/12/09 07:34:16;;;;;;;0.00;0.00;;;1.90;99.90;;;;;;5117479;27;20482;-79
2021/12/09 07:36:43;;;;;;;0.73;0.40;;;1.90;99.90;;;;;;5117913;27;20058;-79
2021/12/09 07:39:08;;;;;;;0.13;0.03;;;1.80;99.90;;;;;;5117861;27;20616;-79
2021/12/09 07:41:34;;;;;;;0.00;0.00;;;1.80;99.90;;;;;;5152424;27;20131;-79
2021/12/09 07:44:05;;;;;;;0.45;0.10;;;1.90;99.90;;;;;;5117615;27;20402;-79
2021/12/09 07:46:35;;;;;;;0.00;0.00;;;1.80;99.90;;;;;;5117737;27;20055;-79
2021/12/09 07:49:02;;;;;;;0.00;0.00;;;1.90;99.90;;;;;;5118020;27;20043;-79
2021/12/09 07:51:27;;;;;;;0.00;0.00;;;1.80;99.90;;;;;;5117889;27;20050;-79
2021/12/09 07:53:53;;;;;;;0.00;0.00;;;1.80;99.90;;;;;;5117391;27;20139;-79
2021/12/09 07:56:19;;;;;;;1.08;0.40;;;1.80;99.90;;;;;;5117200;27;20074;-79
2021/12/09 07:58:45;;;;;;;0.10;0.10;;;1.80;99.90;;;;;;5099234;27;20051;-82
2021/12/09 08:01:11;;;;;;;0.00;0.00;;;1.80;99.90;;;;;;5099518;27;20053;-83
2021/12/09 08:03:37;;;;;;;0.20;0.20;;;1.80;99.90;;;;;;5115745;28;20486;-80
2021/12/09 08:06:03;;;;;;;0.10;0.10;;;1.80;99.90;;;;;;5099117;27;20042;-82
2021/12/09 08:08:29;;;;;;;0.38;0.22;;;1.80;99.90;;;;;;5096865;27;20085;-82
2021/12/09 08:10:55;;;;;;;0.00;0.00;;;1.80;99.90;;;;;;5099628;27;20043;-83
2021/12/09 08:13:23;;;;;;;0.00;0.00;;;1.80;99.90;;;;;;5115939;27;20043;-83
2021/12/09 08:15:54;;;;;;;0.00;0.00;;;1.80;99.90;;;;;;5116190;27;20486;-82
2021/12/09 08:20:51;;;;;;;0.00;0.00;;;1.80;99.90;;;;;;5115186;27;20118;-82
2021/12/09 08:23:17;;;;;;;0.00;0.00;;;1.90;99.90;;;;;;5115318;27;20065;-80
2021/12/09 08:25:43;;;;;;;0.00;0.00;;;1.90;99.90;;;;;;5098231;27;20059;-81
2021/12/09 08:28:09;;;;;;;1.52;0.80;;;1.90;99.90;;;;;;5116406;27;20239;-80
2021/12/09 08:30:37;;;;;;;0.00;0.00;;;2.00;99.90;;;;;;5099390;27;20047;-81
2021/12/09 08:33:05;;;;;;;0.00;0.00;;;2.00;99.90;;;;;;5100089;27;20043;-80
2021/12/09 08:35:31;;;;;;;0.00;0.00;;;2.00;99.90;;;;;;5133435;27;20051;-80
2021/12/09 08:37:58;;;;;;;0.00;0.00;;;2.10;99.90;;;;;;5117128;27;20404;-80
2021/12/09 08:40:26;;;;;;;0.45;0.20;;;2.10;99.90;;;;;;5133746;27;20478;-81
2021/12/09 08:42:52;;;;;;;0.00;0.00;;;2.30;99.90;;;;;;5116372;28;20047;-80
2021/12/09 08:45:19;;;;;;;0.00;0.00;;;3.00;99.90;;;;;;5099768;27;20184;-81
2021/12/09 08:47:45;;;;;;;0.00;0.00;;;3.70;99.90;;;;;;5099347;27;20509;-80
2021/12/09 08:50:15;;;;;;;0.00;0.00;;;4.20;99.90;;;;;;5099847;27;20039;-80
2021/12/09 08:52:41;;;;;;;0.75;0.63;;;4.70;99.90;;;;;;5099546;27;20055;-78
2021/12/09 08:55:10;;;;;;;0.00;0.00;;;5.30;99.90;;;;;;5117139;27;20043;-78
2021/12/09 08:57:37;;;;;;;0.00;0.00;;;5.70;99.90;;;;;;5117101;28;20035;-78
2021/12/09 09:00:11;;;;;;;1.85;0.35;;;6.20;99.90;;;;;;5116930;28;20045;-78
2021/12/09 09:02:42;;;;;;;0.10;0.10;;;6.40;99.90;;;;;;5099526;28;20046;-78
2021/12/09 09:05:11;;;;;;;0.00;0.00;;;6.40;99.90;;;;;;5116503;28;20451;-79
2021/12/09 09:07:41;;;;;;;0.20;0.20;;;6.50;99.90;;;;;;5116090;28;20050;-78
2021/12/09 09:10:08;;;;;;;0.00;0.00;;;6.30;99.90;;;;;;5117309;28;20051;-78
2021/12/09 09:12:34;;;;;;;0.00;0.00;;;6.10;99.90;;;;;;5099684;28;20039;-78
2021/12/09 09:15:01;;;;;;;0.10;0.10;;;6.20;99.90;;;;;;5116307;28;20039;-78
2021/12/09 09:17:27;;;;;;;0.00;0.00;;;6.30;99.90;;;;;;5116757;28;20490;-79
2021/12/09 09:19:53;;;;;;;0.00;0.00;;;6.50;99.90;;;;;;5133681;28;20043;-79
2021/12/09 09:22:18;;;;;;;0.00;0.00;;;6.80;99.90;;;;;;5133505;28;20035;-79
2021/12/09 09:24:44;;;;;;;0.00;0.00;;;7.30;99.90;;;;;;5099516;28;20059;-79
2021/12/09 09:27:10;;;;;;;0.00;0.00;;;7.50;99.90;;;;;;5151450;27;20078;-79
2021/12/09 09:29:38;;;;;;;1.67;0.52;;;7.90;99.90;;;;;;5116813;28;20099;-79
2021/12/09 09:32:05;;;;;;;0.00;0.00;;;8.30;99.90;;;;;;5100697;27;20164;-80
2021/12/09 09:34:31;;;;;;;0.20;0.10;;;8.60;99.90;;;;;;5119182;27;20047;-79
2021/12/09 09:36:57;;;;;;;0.75;0.00;;;8.80;99.90;;;;;;5120038;27;20486;-79
2021/12/09 09:39:28;;;;;;;0.65;0.32;;;9.00;98.70;;;;;;5120265;27;20099;-79
2021/12/09 09:42:00;;;;;;;1.55;1.33;;;9.10;97.30;;;;;;5120594;27;20122;-79
2021/12/09 09:44:33;;;;;;;0.13;0.00;;;9.60;98.20;;;;;;5102948;27;20184;-77
2021/12/09 09:47:00;;;;;;;0.00;0.00;;;9.80;96.00;;;;;;5120416;27;20051;-78
2021/12/09 09:49:28;;;;;;;0.00;0.00;;;10.00;97.40;;;;;;5103448;27;20387;-79
2021/12/09 09:51:57;;;;;;;1.33;0.30;;;9.90;94.60;;;;;;5120545;27;20483;-79
2021/12/09 09:54:24;;;;;;;0.40;0.10;;;10.00;95.10;;;;;;5120297;27;20043;-79
2021/12/09 09:56:49;;;;;;;0.00;0.00;;;9.80;95.00;;;;;;5102252;27;20577;-80
2021/12/09 09:59:17;;;;;;;0.00;0.00;;;9.60;95.30;;;;;;5102588;27;20126;-79
2021/12/09 10:01:44;;;;;;;0.30;0.30;;;9.30;95.50;;;;;;5119742;27;20085;-79
2021/12/09 10:04:11;;;;;;;0.00;0.00;;;9.30;96.70;;;;;;5119625;27;20047;-79
2021/12/09 10:06:39;;;;;;;0.00;0.00;;;9.00;97.00;;;;;;5102749;27;20156;-79
2021/12/09 10:09:06;;;;;;;1.15;0.38;;;8.70;98.40;;;;;;5102828;27;20077;-78
2021/12/09 10:11:33;;;;;;;0.10;0.05;;;8.40;98.90;;;;;;5119717;27;20085;-79
2021/12/09 10:14:19;;;;;;;0.00;0.00;;;8.20;99.40;;;;;;5119839;27;20147;-79
2021/12/09 10:16:59;;;;;;;0.13;0.10;;;8.30;99.80;;;;;;5120065;27;20049;-78
2021/12/09 10:19:25;;;;;;;0.05;0.05;;;8.50;99.80;;;;;;5119978;27;20159;-78
2021/12/09 10:22:10;;;;;;;0.00;0.00;;;8.60;99.30;;;;;;5119550;27;20089;-78
2021/12/09 10:24:38;;;;;;;1.52;0.28;;;8.50;99.40;;;;;;5102671;27;20043;-78
2021/12/09 10:27:07;;;;;;;0.90;0.32;;;8.30;99.60;;;;;;5102630;27;20055;-78
2021/12/09 10:29:38;;;;;;;0.20;0.20;;;8.40;99.20;;;;;;5102821;27;20082;-78
2021/12/09 10:32:08;;;;;;;0.00;0.00;;;8.50;98.60;;;;;;5120305;27;20062;-78
2021/12/09 10:34:40;;;;;;;0.25;0.20;;;8.70;99.60;;;;;;5102041;27;20102;-78
2021/12/09 10:37:20;;;;;;;1.73;0.00;;;8.70;98.70;;;;;;5102329;27;20051;-78
2021/12/09 10:39:59;;;;;;;0.00;0.00;;;8.20;98.80;;;;;;5119726;27;20051;-78
2021/12/09 10:42:30;;;;;;;0.20;0.20;;;7.50;99.90;;;;;;5119333;27;20434;-78
2021/12/09 10:45:06;;;;;;;0.00;0.00;;;7.00;99.90;;;;;;5102412;27;20035;-79
2021/12/09 10:50:22;;;;;;;0.08;0.03;;;6.00;99.90;;;;;;5120044;27;20079;-79
2021/12/09 10:56:01;;;;;;;0.00;0.00;;;5.50;99.90;;;;;;5118803;27;20043;-79
2021/12/09 10:58:29;;;;;;;0.00;0.00;;;5.40;99.90;;;;;;5101576;27;20059;-79
2021/12/09 11:01:05;;;;;;;0.22;0.17;;;5.30;99.90;;;;;;5119613;27;20055;-79
2021/12/09 11:03:37;;;;;;;0.00;0.00;;;5.40;99.90;;;;;;5101873;27;20489;-79
2021/12/09 11:06:10;;;;;;;0.00;0.00;;;5.40;99.90;;;;;;5101613;27;20055;-79
2021/12/09 11:08:53;;;;;;;0.00;0.00;;;5.30;99.90;;;;;;5102206;27;20554;-79
2021/12/09 11:11:29;;;;;;;0.00;0.00;;;5.10;99.90;;;;;;5102404;27;20134;-79
2021/12/09 11:14:03;;;;;;;0.10;0.00;;;5.10;99.90;;;;;;5102011;27;20134;-79
2021/12/09 11:16:44;;;;;;;0.00;0.00;;;5.00;99.90;;;;;;5118687;27;20055;-79
2021/12/09 11:22:01;;;;;;;0.30;0.30;;;4.90;99.90;;;;;;5118140;27;20047;-79
2021/12/09 11:24:32;;;;;;;0.20;0.20;;;4.70;99.90;;;;;;5101368;27;20043;-79
2021/12/09 11:27:09;;;;;;;4.22;0.68;;;4.70;99.90;;;;;;5101249;27;20475;-79
2021/12/09 11:29:45;;;;;;;0.00;0.00;;;4.70;99.90;;;;;;5118830;27;20367;-79
2021/12/09 11:35:15;;;;;;;0.43;0.05;;;4.70;99.90;;;;;;5117619;27;20063;-79
2021/12/09 11:37:58;;;;;;;;;;;4.80;99.90;;;;;;5101423;27;20409;-79
2021/12/09 11:40:37;;;;;;;0.00;0.00;;;4.70;99.90;;;;;;5099985;27;19934;-81
2021/12/09 11:43:06;;;;;;;0.00;0.00;;;4.70;99.90;;;;;;5100258;27;20043;-81
2021/12/09 11:45:37;;;;;;;0.00;0.00;;;4.70;99.90;;;;;;5100111;27;20055;-78
2021/12/09 11:48:06;;;;;;;0.00;0.00;;;4.70;99.90;;;;;;5118113;27;20386;-79
2021/12/09 11:50:40;;;;;;;0.08;0.08;;;4.70;99.90;;;;;;5117829;27;20039;-78
2021/12/09 11:53:10;;;;;;;0.17;0.17;;;4.70;99.90;;;;;;5101125;27;20057;-79
2021/12/09 11:55:42;;;;;;;0.10;0.00;;;4.70;99.90;;;;;;5117360;27;20043;-79
2021/12/09 11:58:24;;;;;;;0.00;0.00;;;4.80;99.90;;;;;;5100621;27;20094;-79
2021/12/09 12:07:18;;;;;;;0.00;0.00;;;4.70;99.90;;;;;;5118089;27;20054;-78
2021/12/09 12:12:48;;;;;;;0.00;0.00;;;4.70;99.90;;;;;;5116686;27;20054;-80
2021/12/09 12:24:18;;;;;;;0.00;0.00;;;4.70;99.90;;;;;;5115535;27;20097;-79
2021/12/09 12:40:12;;;;;;;0.05;0.00;;;4.60;99.90;;;;;;5117538;27;20051;-79
2021/12/09 12:48:38;;;;;;;0.20;0.10;;;4.60;99.90;;;;;;5052959;28;20055;-80
2021/12/09 12:51:34;;;;;;;0.10;0.10;;;4.60;99.90;;;;;;5055329;28;20063;-79
2021/12/09 12:54:18;;;;;;;0.00;0.00;;;4.60;99.90;;;;;;5038775;28;20060;-79
2021/12/09 12:56:53;;;;;;;0.40;0.20;;;4.60;99.90;;;;;;5055759;28;20068;-79
2021/12/09 12:59:29;;;;;;;0.20;0.00;;;4.60;99.90;;;;;;5055212;28;20060;-79
2021/12/09 13:02:02;;;;;;;0.00;0.00;;;4.60;99.90;;;;;;5055136;28;20049;-79
2021/12/09 13:07:30;;;;;;;0.10;0.10;;;4.60;99.90;;;;;;5057421;28;20052;-79
2021/12/09 13:10:43;;;;;;;0.00;0.00;;;4.60;99.90;;;;;;5058974;28;20147;-79
2021/12/09 13:21:46;;;;;;;0.45;0.30;;;4.60;99.90;;;;;;4963009;28;20116;-79
2021/12/09 13:25:06;;;;;;;0.00;0.00;;;4.70;99.90;;;;;;4983122;28;20401;-79
2021/12/09 13:27:49;;;;;;;0.25;0.25;;;4.70;99.90;;;;;;4983752;28;20104;-79
2021/12/09 13:35:31;;;;;;;0.40;0.40;;;4.70;99.90;;;;;;4998954;28;20058;-80
2021/12/09 13:49:23;;;;;;;0.13;0.10;;;4.80;99.90;;;;;;4999878;28;20398;-78
2021/12/09 13:57:04;;;;;;;1.27;0.20;;;4.70;99.90;;;;;;5093705;28;20178;-79
2021/12/09 13:59:35;;;;;;;0.10;0.10;;;4.70;99.90;;;;;;5096181;28;20399;-79
2021/12/09 14:02:17;;;;;;;0.00;0.00;;;4.70;99.90;;;;;;5095949;28;20494;-79
2021/12/09 14:04:42;;;;;;;0.03;0.03;;;4.70;99.90;;;;;;5095912;28;20063;-79
2021/12/09 14:07:13;;;;;;;0.00;0.00;;;4.70;99.90;;;;;;5096049;28;20052;-80
2021/12/09 14:09:42;;;;;;;0.00;0.00;;;4.70;99.90;;;;;;5105277;28;20543;-79
2021/12/09 14:12:08;;;;;;;0.75;0.75;;;4.70;99.90;;;;;;5116115;28;20043;-79
2021/12/09 14:14:59;;;;;;;0.10;0.10;;;4.70;99.90;;;;;;5099316;28;20050;-80
2021/12/09 14:17:27;;;;;;;0.13;0.13;;;4.60;99.90;;;;;;5098730;28;20044;-79
2021/12/09 14:20:06;;;;;;;0.47;0.47;;;4.60;99.90;;;;;;5115897;28;20043;-79
2021/12/09 14:22:37;;;;;;;0.10;0.10;;;4.60;99.90;;;;;;5099097;28;20099;-79
2021/12/09 14:25:13;;;;;;;0.10;0.10;;;4.60;99.90;;;;;;5116092;28;20139;-79
2021/12/09 14:27:39;;;;;;;1.00;0.55;;;4.60;99.90;;;;;;5116288;28;20047;-79
2021/12/09 14:30:10;;;;;;;0.10;0.10;;;4.60;99.90;;;;;;5115693;28;20040;-80
2021/12/09 14:32:36;;;;;;;0.13;0.13;;;4.60;99.90;;;;;;5098864;28;20104;-79
2021/12/09 14:35:05;;;;;;;0.38;0.17;;;4.60;99.90;;;;;;5098406;28;20051;-79